B61137 / N192JB 7700 Squawk Report (12th of September, 2019)

Aircraft E190 Reg No. N192JB Age N/A
Model Emb-190 Jet engines 2 First flight 11-05
Registered 06-12-05 Rollout 11-05 Delivered 06-12-05
Construction No. 19000014 Line No. N/A Series 100IGW
ADSHEX A17063 Airline name JetBlue Airways Owner Wells Fargo Trust Co NA Trustee
Airfield based New York-JFK~NY~N First tracked 2017-07-13 11:06:00

Flight history for N192JB

Route Flight No Date Playback
Westchester Co (HPN) - Orlando Intl (MCO) B6395 2019-10-13 19:33:00
Orlando Intl (MCO) - Westchester Co (HPN) B61694 2019-10-13 14:24:00
Ronald Reagan Washington Natl (DCA) - Orlando Intl (MCO) B62323 2019-10-12 20:45:00
Orlando Intl (MCO) - Ronald Reagan Washington Natl (DCA) B6724 2019-10-12 18:18:00
Orlando Intl (MCO) - José Martí Intl (HAV) B6503 2019-10-12 12:27:00
Logan International Airport (BOS) - Orlando Intl (MCO) B62551 2019-10-12 12:21:00
John F Kennedy Intl (JFK) - Logan International Airport (BOS) B61418 2019-10-12 05:42:00
Martha\'s Vineyard (MVY) - John F Kennedy Intl (JFK) B61439 2019-10-11 22:00:00
Portland Intl Jetport (PWM) - John F Kennedy Intl (JFK) B6107 2019-10-11 19:47:00
???? N/A 2019-10-11 14:32:00
Buffalo Niagara Intl (BUF) - John F Kennedy Intl (JFK) B62101 2019-10-11 13:56:00
John F Kennedy Intl (JFK) - Buffalo Niagara Intl (BUF) B62802 2019-10-11 11:11:00
Syracuse Hancock Intl (SYR) - John F Kennedy Intl (JFK) B61815 2019-10-11 10:25:00
John F Kennedy Intl (JFK) - Syracuse Hancock Intl (SYR) B62516 2019-10-10 23:25:00
???? N/A 2019-10-08 15:03:00
Logan International Airport (BOS) - John F Kennedy Intl (JFK) B6917 2019-10-08 11:53:00
Orlando Intl (MCO) - Logan International Airport (BOS) B62052 2019-10-08 01:29:00
Worcester Regional Airport (ORH) - Orlando Intl (MCO) B61887 2019-10-06 21:12:00
Orlando Intl (MCO) - Worcester Regional Airport (ORH) B6330 2019-10-06 19:56:00
Ronald Reagan Washington Natl (DCA) - Orlando Intl (MCO) B61023 2019-10-05 01:03:00
Time Lat Lon Altitude Heading Speed Vertical Rate
2019-09-12 13:26:54 GMT 42.368217 -82.745384 5,150 218 321 -1984
2019-09-12 13:26:54 GMT 42.368217 -82.745384 12,250 218 321 -1984
2019-09-12 13:26:40 GMT 42.382416 -82.731773 13,500 220 333 -3200
2019-09-12 13:26:25 GMT 42.401592 -82.713379 13,025 220 333 -3200
2019-09-12 13:26:16 GMT 42.409508 -82.705269 13,500 220 336 -3904
2019-09-12 13:26:09 GMT 42.419098 -82.696899 13,600 222 340 -4416
2019-09-12 13:25:57 GMT 42.435810 -82.682724 14,450 227 340 -4800
2019-09-12 13:25:48 GMT 42.447216 -82.669693 15,575 229 337 -3392
2019-09-12 13:25:31 GMT 42.466488 -82.650909 16,725 236 357 -1728
2019-09-12 13:25:25 GMT 42.476685 -82.643120 16,950 241 364 -1600
2019-09-12 13:25:11 GMT 42.490883 -82.615204 17,350 244 367 -512
2019-09-12 13:25:05 GMT 42.494980 -82.604927 17,325 244 367 -1088
2019-09-12 13:24:52 GMT 42.504799 -82.577774 17,575 244 366 -1280
2019-09-12 13:24:40 GMT 42.513084 -82.555420 18,125 244 364 -128
2019-09-12 13:24:30 GMT 42.520908 -82.534470 18,125 244 364 -128
2019-09-12 13:24:23 GMT 42.527004 -82.518120 18,175 244 364 -128
2019-09-12 13:24:07 GMT 42.539295 -82.485100 18,175 244 358 -128
2019-09-12 13:23:58 GMT 42.545906 -82.467979 18,225 244 358 -128
2019-09-12 13:23:44 GMT 42.556519 -82.440895 18,225 244 353 -128
2019-09-12 13:23:39 GMT 42.562386 -82.426521 18,275 244 353 -128
2019-09-12 13:23:25 GMT 42.580307 -82.379196 18,300 245 343 -128
2019-09-12 13:23:16 GMT 42.580307 -82.379196 18,325 245 343 -128
2019-09-12 13:23:06 GMT 42.587803 -82.358627 18,350 245 343 -128
2019-09-12 13:22:52 GMT 42.600605 -82.329308 18,350 247 333 -128
2019-09-12 13:22:37 GMT 42.615082 -82.299034 18,375 268 365 -1216
2019-09-12 13:22:27 GMT 42.622391 -82.281532 18,425 268 365 -1216
2019-09-12 13:22:20 GMT 42.627605 -82.266518 18,450 268 365 -1216
2019-09-12 13:22:03 GMT 42.639988 -82.236176 18,475 268 365 -1216
2019-09-12 13:21:59 GMT 42.643108 -82.224686 18,500 268 365 -1216
2019-09-12 13:21:44 GMT 42.648415 -82.168282 18,525 268 365 -1216
2019-09-12 13:21:32 GMT 42.648415 -82.168282 18,550 268 365 -1216
2019-09-12 13:21:27 GMT 42.649113 -82.154610 18,775 268 365 -1216
2019-09-12 13:21:13 GMT 42.650089 -82.125610 19,000 268 368 -1280
2019-09-12 13:21:01 GMT 42.650600 -82.098213 19,300 268 369 -1216
2019-09-12 13:20:53 GMT 42.651207 -82.077194 19,175 268 368 -1280
2019-09-12 13:20:42 GMT 42.652279 -82.054077 19,400 268 368 -1216
2019-09-12 13:20:30 GMT 42.652184 -82.029800 19,650 267 370 -1280
2019-09-12 13:20:18 GMT 42.649998 -82.002403 20,200 266 380 -1344
2019-09-12 13:20:09 GMT 42.650787 -81.983429 20,100 266 381 -1216
2019-09-12 13:19:59 GMT 42.651905 -81.955391 20,350 266 383 -1216
2019-09-12 13:19:50 GMT 42.652603 -81.936295 20,875 266 382 -1024
2019-09-12 13:19:37 GMT 42.653908 -81.906273 21,100 266 385 -1088
2019-09-12 13:19:26 GMT 42.655724 -81.882187 21,250 266 386 -1216
2019-09-12 13:19:16 GMT 42.658421 -81.828918 21,400 266 384 -1792
2019-09-12 13:19:04 GMT 42.658421 -81.828918 21,475 266 384 -1792
2019-09-12 13:18:58 GMT 42.659588 -81.807396 21,925 266 385 -1792
2019-09-12 13:18:43 GMT 42.661587 -81.774307 22,425 266 387 -1216
2019-09-12 13:18:27 GMT 42.663822 -81.738602 22,150 266 389 -1984
2019-09-12 13:18:19 GMT 42.664616 -81.721420 22,525 266 390 -1920
2019-09-12 13:18:12 GMT 42.665592 -81.704681 23,050 266 390 -1920
2019-09-12 13:17:58 GMT 42.667221 -81.670700 23,575 266 390 -1920
2019-09-12 13:17:44 GMT 42.669315 -81.634682 24,075 266 392 -1664
2019-09-12 13:17:36 GMT 42.670200 -81.618004 24,425 266 394 -1088
2019-09-12 13:17:26 GMT 42.671410 -81.591179 24,150 266 395 -512
2019-09-12 13:17:20 GMT 42.672016 -81.578979 24,950 266 395 -128
2019-09-12 13:17:05 GMT 42.673786 -81.544998 24,975 266 404 128
2019-09-12 13:16:54 GMT 42.675182 -81.518616 25,000 266 404 128
2019-09-12 13:16:43 GMT 42.677090 -81.486618 25,000 266 404 128
2019-09-12 13:16:33 GMT 42.678810 -81.458893 25,000 266 404 128
2019-09-12 13:16:18 GMT 42.680489 -81.426704 25,000 266 406 -384
2019-09-12 13:16:12 GMT 42.681278 -81.414124 24,850 266 406 -384
2019-09-12 13:16:03 GMT 42.682907 -81.389015 24,900 266 408 -640
2019-09-12 13:15:50 GMT 42.685005 -81.353821 24,975 266 411 -1152
2019-09-12 13:15:42 GMT 42.685982 -81.335876 25,050 266 411 -1472
2019-09-12 13:15:29 GMT 42.689007 -81.274872 25,225 267 413 -1664
2019-09-12 13:15:18 GMT 42.689007 -81.274872 25,275 267 413 -1664
2019-09-12 13:15:06 GMT 42.690681 -81.243706 25,675 267 413 -1472
2019-09-12 13:14:56 GMT 42.692219 -81.209785 26,025 267 412 -1472
2019-09-12 13:14:47 GMT 42.693382 -81.191772 26,350 267 413 -960
2019-09-12 13:14:35 GMT 42.694687 -81.163223 26,675 267 413 -960
2019-09-12 13:14:21 GMT 42.696316 -81.129883 26,800 267 413 -960
2019-09-12 13:14:15 GMT 42.697807 -81.106506 27,000 267 414 -960
2019-09-12 13:14:04 GMT 42.702415 -81.041412 27,225 268 414 -1024
2019-09-12 13:13:49 GMT 42.702415 -81.041412 27,350 268 414 -1024
2019-09-12 13:13:43 GMT 42.702694 -81.030876 27,625 267 414 -960
2019-09-12 13:12:08 GMT 42.713215 -80.757881 29,000 267 415 -768
2019-09-12 13:11:57 GMT 42.713913 -80.744911 29,250 267 415 -768
2019-09-12 13:11:52 GMT 42.713913 -80.744911 29,350 267 415 -768
2019-09-12 13:11:40 GMT 42.715496 -80.709206 29,550 267 420 64
2019-09-12 13:11:33 GMT 42.715916 -80.690620 29,725 267 420 64
2019-09-12 13:11:21 GMT 42.716614 -80.657021 29,875 267 420 64
2019-09-12 13:11:06 GMT 42.718197 -80.619591 30,000 267 420 64
2019-09-12 13:10:57 GMT 42.719315 -80.595573 30,000 266 419 0
2019-09-12 13:10:45 GMT 42.720196 -80.566322 30,000 266 419 0
2019-09-12 13:10:36 GMT 42.720989 -80.545303 30,000 266 419 0
2019-09-12 13:10:23 GMT 42.722477 -80.509087 30,000 266 419 0
2019-09-12 13:10:13 GMT 42.723408 -80.483093 30,000 265 423 -256
2019-09-12 13:10:01 GMT 42.724388 -80.447388 30,000 265 423 -256
2019-09-12 13:09:47 GMT 42.725922 -80.415512 30,000 264 419 0
2019-09-12 13:09:33 GMT 42.729183 -80.376167 30,000 264 419 0
2019-09-12 13:09:11 GMT 42.733513 -80.323219 30,275 264 419 0
2019-09-12 13:09:04 GMT 42.735188 -80.304695 30,450 264 419 0
2019-09-12 13:04:57 GMT 42.789001 -79.658417 32,000 264 419 0
2019-09-12 13:04:50 GMT 42.791424 -79.629608 32,000 264 419 0
2019-09-12 13:04:43 GMT 42.792820 -79.613899 32,000 264 419 0
2019-09-12 13:04:32 GMT 42.795006 -79.590324 32,000 264 418 0
2019-09-12 13:04:17 GMT 42.797894 -79.553986 32,000 264 411 0
2019-09-12 13:04:03 GMT 42.801105 -79.515083 32,000 264 411 0
2019-09-12 13:03:58 GMT 42.804596 -79.469032 32,000 264 411 0
2019-09-12 13:03:46 GMT 42.804596 -79.469032 32,000 264 411 0
2019-09-12 13:03:34 GMT 42.807297 -79.434471 32,000 264 411 0
2019-09-12 13:03:29 GMT 42.808506 -79.421509 32,000 264 414 0
2019-09-12 13:03:18 GMT 42.810787 -79.394272 32,000 265 406 0
2019-09-12 13:03:08 GMT 42.812603 -79.364975 32,000 265 401 0
2019-09-12 13:02:53 GMT 42.815117 -79.333717 32,000 264 411 0
2019-09-12 13:02:45 GMT 42.815304 -79.311874 32,000 264 411 0
2019-09-12 13:02:31 GMT 42.819214 -79.278519 32,000 264 411 0
2019-09-12 13:02:22 GMT 42.820984 -79.250923 32,000 264 411 0
2019-09-12 13:02:06 GMT 42.824100 -79.211815 32,000 264 411 0
2019-09-12 13:01:35 GMT 42.830292 -79.129486 32,000 264 411 0
2019-09-12 13:01:28 GMT 42.831692 -79.112679 32,000 264 411 0
2019-09-12 13:01:22 GMT 42.833084 -79.094627 32,000 264 409 0
2019-09-12 13:01:04 GMT 42.835880 -79.053627 32,000 264 409 0
2019-09-12 13:00:58 GMT 42.837185 -79.033485 32,000 264 409 0
2019-09-12 13:00:44 GMT 42.840397 -78.997391 32,000 264 411 0
2019-09-12 13:00:36 GMT 42.842117 -78.979599 32,000 264 411 0
2019-09-12 13:00:24 GMT 42.843887 -78.949387 32,000 264 416 64
2019-09-12 13:00:18 GMT 42.845097 -78.934280 32,000 264 416 64
2019-09-12 13:00:11 GMT 42.846493 -78.916428 32,000 264 416 64
2019-09-12 13:00:07 GMT 42.847706 -78.901131 32,000 264 416 64
2019-09-12 12:59:58 GMT 42.849285 -78.879875 32,000 264 420 0
2019-09-12 12:59:49 GMT 42.852997 -78.833420 32,000 264 420 0
2019-09-12 12:59:33 GMT 42.854595 -78.818596 32,000 264 420 0
2019-09-12 12:59:26 GMT 42.856689 -78.801270 32,025 264 420 0
2019-09-12 12:59:12 GMT 42.859806 -78.764778 32,000 265 409 -64
2019-09-12 12:59:06 GMT 42.861389 -78.746269 32,000 265 409 -64
2019-09-12 12:58:59 GMT 42.862785 -78.729401 32,000 265 409 -64
2019-09-12 12:58:51 GMT 42.864788 -78.708275 32,000 265 409 -64
2019-09-12 12:58:44 GMT 42.866184 -78.689186 32,000 265 409 -64
2019-09-12 12:58:28 GMT 42.869209 -78.645302 32,000 265 402 64
2019-09-12 12:58:19 GMT 42.870514 -78.621628 32,000 265 402 64
2019-09-12 12:58:05 GMT 42.873402 -78.585007 32,000 265 402 64
2019-09-12 12:57:52 GMT 42.874985 -78.552574 32,000 265 402 64
2019-09-12 12:57:47 GMT 42.875820 -78.539688 32,000 265 402 64
2019-09-12 12:57:38 GMT 42.876984 -78.521774 32,000 265 402 64
2019-09-12 12:57:30 GMT 42.878521 -78.494308 32,000 265 402 64
2019-09-12 12:57:20 GMT 42.879780 -78.474228 32,000 265 404 64
2019-09-12 12:57:08 GMT 42.881500 -78.444214 32,000 265 404 64
2019-09-12 12:56:54 GMT 42.883923 -78.409096 32,000 266 406 0
2019-09-12 12:56:48 GMT 42.884991 -78.393791 32,000 266 406 0
2019-09-12 12:56:36 GMT 42.886806 -78.365868 32,000 266 406 0
2019-09-12 12:56:23 GMT 42.889603 -78.325195 32,000 266 406 0
2019-09-12 12:56:10 GMT 42.891277 -78.299889 32,000 266 406 0
2019-09-12 12:56:05 GMT 42.892578 -78.287201 32,000 266 406 0
2019-09-12 12:55:49 GMT 42.895790 -78.230507 32,000 266 406 0
2019-09-12 12:55:43 GMT 42.899097 -78.188911 32,000 266 406 0
2019-09-12 12:55:28 GMT 42.899097 -78.188911 32,000 265 405 0
2019-09-12 12:55:20 GMT 42.900681 -78.168900 32,000 266 407 0
2019-09-12 12:55:05 GMT 42.903286 -78.133194 32,000 266 407 0
2019-09-12 12:54:57 GMT 42.905102 -78.097298 32,000 266 407 64
2019-09-12 12:54:52 GMT 42.905102 -78.097298 32,000 266 407 64
2019-09-12 12:54:39 GMT 42.907200 -78.058975 32,000 266 407 0
2019-09-12 12:54:25 GMT 42.908920 -78.028305 32,000 266 406 0
2019-09-12 12:54:18 GMT 42.910690 -78.007706 32,000 266 406 0
2019-09-12 12:54:11 GMT 42.911621 -77.992271 32,000 266 405 0
2019-09-12 12:54:06 GMT 42.912689 -77.974419 32,000 266 405 0
2019-09-12 12:53:51 GMT 42.914600 -77.943878 32,000 265 405 64
2019-09-12 12:53:45 GMT 42.915203 -77.928703 32,000 265 405 64
2019-09-12 12:53:39 GMT 42.916183 -77.910919 32,000 265 405 64
2019-09-12 12:53:33 GMT 42.917114 -77.895485 32,000 265 405 64
2019-09-12 12:53:25 GMT 42.919579 -77.857819 32,000 266 403 0
2019-09-12 12:53:19 GMT 42.919579 -77.857819 32,000 266 403 0
2019-09-12 12:53:11 GMT 42.920696 -77.839897 32,000 266 403 0
2019-09-12 12:53:05 GMT 42.922886 -77.806091 32,000 266 403 0
2019-09-12 12:53:00 GMT 42.922886 -77.806091 32,000 266 403 0
2019-09-12 12:52:51 GMT 42.924191 -77.784508 32,000 266 403 0
2019-09-12 12:52:44 GMT 42.925587 -77.767181 32,000 266 403 0
2019-09-12 12:52:39 GMT 42.927586 -77.737228 32,000 266 403 0
2019-09-12 12:52:31 GMT 42.927586 -77.737228 32,000 266 403 0
2019-09-12 12:52:25 GMT 42.928612 -77.722122 32,000 266 403 0
2019-09-12 12:52:10 GMT 42.930893 -77.686417 32,000 266 403 0
2019-09-12 12:52:03 GMT 42.932709 -77.660980 32,000 266 403 0
2019-09-12 12:51:56 GMT 42.933594 -77.648232 32,000 266 403 0
2019-09-12 12:51:48 GMT 42.935501 -77.611801 32,000 266 403 0
2019-09-12 12:51:42 GMT 42.935501 -77.611801 32,000 266 403 0
2019-09-12 12:51:37 GMT 42.936108 -77.601601 32,000 266 403 0
2019-09-12 12:51:31 GMT 42.937691 -77.583618 32,000 266 400 0
2019-09-12 12:51:19 GMT 42.939087 -77.555893 32,000 266 400 0
2019-09-12 12:51:11 GMT 42.940994 -77.530716 32,000 266 400 0
2019-09-12 12:50:56 GMT 42.943600 -77.492592 32,000 266 400 0
2019-09-12 12:50:51 GMT 42.944302 -77.484810 32,000 266 400 0
2019-09-12 12:50:37 GMT 42.948303 -77.421310 32,000 266 400 0
2019-09-12 12:50:27 GMT 42.950493 -77.391289 32,000 266 400 0
2019-09-12 12:50:14 GMT 42.950493 -77.391289 32,000 266 400 0
2019-09-12 12:50:01 GMT 42.952587 -77.343819 32,000 266 400 0
2019-09-12 12:49:56 GMT 42.954403 -77.310921 32,000 266 400 0
2019-09-12 12:49:43 GMT 42.954403 -77.310921 32,000 266 400 0
2019-09-12 12:49:32 GMT 42.956078 -77.278221 32,000 266 400 0
2019-09-12 12:49:23 GMT 42.956589 -77.260696 32,000 266 400 0
2019-09-12 12:49:12 GMT 42.958313 -77.230614 32,000 266 400 0
2019-09-12 12:49:00 GMT 42.961990 -77.175034 32,000 266 400 0
2019-09-12 12:48:52 GMT 42.961990 -77.175034 32,000 266 400 0
2019-09-12 12:48:37 GMT 42.964176 -77.142265 32,000 266 404 0
2019-09-12 12:48:26 GMT 42.965389 -77.114868 32,000 266 404 0
2019-09-12 12:48:14 GMT 42.967110 -77.084396 32,000 266 404 0
2019-09-12 12:48:03 GMT 42.968323 -77.059090 32,000 266 404 0
2019-09-12 12:47:56 GMT 42.968880 -77.039268 32,000 266 404 0
2019-09-12 12:47:41 GMT 42.970882 -77.007095 32,000 266 404 0
2019-09-12 12:47:33 GMT 42.972603 -76.984276 32,000 266 404 0
2019-09-12 12:47:25 GMT 42.974419 -76.959618 32,000 266 404 0
2019-09-12 12:47:18 GMT 42.975395 -76.946609 32,000 267 396 0
2019-09-12 12:47:13 GMT 42.976002 -76.933594 32,000 267 396 0
2019-09-12 12:46:59 GMT 42.979122 -76.897629 32,000 267 396 0
2019-09-12 12:46:47 GMT 42.980984 -76.864929 32,000 267 397 64
2019-09-12 12:46:41 GMT 42.982006 -76.849823 32,000 267 397 64
2019-09-12 12:46:29 GMT 42.983589 -76.817520 32,025 267 397 64
2019-09-12 12:46:19 GMT 42.984520 -76.797508 32,000 266 399 0
2019-09-12 12:46:06 GMT 42.986103 -76.745384 32,000 266 399 0
2019-09-12 12:45:59 GMT 42.986103 -76.745384 32,000 266 399 0
2019-09-12 12:45:51 GMT 42.988197 -76.702812 32,000 268 388 0
2019-09-12 12:45:42 GMT 42.988197 -76.702812 32,000 268 388 0
2019-09-12 12:45:37 GMT 42.988895 -76.692810 32,000 268 388 0
2019-09-12 12:45:28 GMT 42.990200 -76.673386 32,000 268 388 0
2019-09-12 12:45:21 GMT 42.991692 -76.650627 32,000 268 388 0
2019-09-12 12:45:14 GMT 42.992901 -76.637619 32,000 268 388 0
2019-09-12 12:45:02 GMT 42.995415 -76.606293 32,000 268 388 0
2019-09-12 12:44:57 GMT 42.996811 -76.589813 32,000 268 388 0
2019-09-12 12:44:49 GMT 42.997185 -76.572876 32,000 267 392 0
2019-09-12 12:44:42 GMT 42.996902 -76.556526 32,000 266 397 0
2019-09-12 12:44:35 GMT 42.997787 -76.539200 32,000 266 397 0
2019-09-12 12:44:30 GMT 42.997601 -76.522980 32,000 266 397 0
2019-09-12 12:44:24 GMT 42.998207 -76.507874 32,000 266 397 0
2019-09-12 12:44:14 GMT 42.999416 -76.482895 32,000 266 397 0
2019-09-12 12:44:08 GMT 43.000301 -76.465103 32,000 266 397 0
2019-09-12 12:43:59 GMT 43.001511 -76.447517 32,000 266 402 0
2019-09-12 12:43:54 GMT 43.002117 -76.438095 32,000 266 402 0
2019-09-12 12:43:44 GMT 43.003189 -76.408607 32,000 266 402 0
2019-09-12 12:43:31 GMT 43.004910 -76.378525 32,000 266 395 0
2019-09-12 12:43:23 GMT 43.006588 -76.337387 32,000 266 395 0
2019-09-12 12:43:10 GMT 43.007610 -76.322220 32,000 266 395 0
2019-09-12 12:42:58 GMT 43.009289 -76.294228 32,000 266 398 0
2019-09-12 12:42:49 GMT 43.010078 -76.271996 32,025 266 398 0
2019-09-12 12:42:39 GMT 43.011288 -76.249496 32,000 266 396 0
2019-09-12 12:42:32 GMT 43.013523 -76.209213 32,000 266 396 0
2019-09-12 12:42:25 GMT 43.013523 -76.209213 32,000 266 397 0
2019-09-12 12:42:19 GMT 43.014500 -76.197182 32,000 266 397 0
2019-09-12 12:42:09 GMT 43.016411 -76.170631 32,000 267 398 0
2019-09-12 12:42:04 GMT 43.017105 -76.160500 32,000 267 398 0
2019-09-12 12:41:58 GMT 43.017807 -76.145782 32,000 267 398 0
2019-09-12 12:41:52 GMT 43.018505 -76.124794 32,000 267 398 0
2019-09-12 12:41:43 GMT 43.019295 -76.109688 32,000 267 398 0
2019-09-12 12:41:36 GMT 43.020508 -76.084702 32,000 267 398 0
2019-09-12 12:41:30 GMT 43.020599 -76.077774 32,000 267 404 64
2019-09-12 12:41:25 GMT 43.021717 -76.045532 32,000 267 404 64
2019-09-12 12:41:20 GMT 43.021717 -76.045532 32,000 267 404 64
2019-09-12 12:41:11 GMT 43.022320 -76.027092 32,000 266 402 64
2019-09-12 12:41:03 GMT 43.023392 -76.004402 32,000 266 402 64
2019-09-12 12:40:58 GMT 43.023811 -75.991386 32,000 266 400 0
2019-09-12 12:40:45 GMT 43.027023 -75.942604 32,000 266 394 0
2019-09-12 12:40:38 GMT 43.028793 -75.915787 32,000 266 396 0
2019-09-12 12:40:29 GMT 43.029491 -75.903625 32,000 267 397 64
2019-09-12 12:40:21 GMT 43.029491 -75.903625 32,000 267 397 64
2019-09-12 12:40:14 GMT 43.030609 -75.881195 32,025 267 398 64
2019-09-12 12:40:05 GMT 43.032097 -75.860985 32,025 267 397 128
2019-09-12 12:39:54 GMT 43.033588 -75.828682 32,000 267 396 0
2019-09-12 12:39:39 GMT 43.035400 -75.792976 32,000 267 396 0
2019-09-12 12:39:33 GMT 43.034985 -75.783432 32,000 267 397 0
2019-09-12 12:39:22 GMT 43.036518 -75.753220 32,000 267 396 0
2019-09-12 12:39:11 GMT 43.037914 -75.718491 32,000 267 398 0
2019-09-12 12:38:54 GMT 43.039406 -75.683372 32,000 267 398 0
2019-09-12 12:38:48 GMT 43.040104 -75.668266 32,000 267 395 0
2019-09-12 12:38:34 GMT 43.042477 -75.615105 32,000 267 393 0
2019-09-12 12:38:28 GMT 43.042477 -75.615105 32,000 267 393 0
2019-09-12 12:38:16 GMT 43.043922 -75.587700 32,000 267 392 0
2019-09-12 12:38:08 GMT 43.045086 -75.569916 32,000 267 390 0
2019-09-12 12:37:56 GMT 43.046902 -75.538200 32,000 269 391 0
2019-09-12 12:37:40 GMT 43.049416 -75.501122 32,000 269 391 0
2019-09-12 12:37:32 GMT 43.049416 -75.476402 32,000 268 391 0
2019-09-12 12:37:26 GMT 43.050114 -75.466393 32,000 269 390 0
2019-09-12 12:37:18 GMT 43.050716 -75.444229 32,000 269 389 0
2019-09-12 12:36:52 GMT 43.053604 -75.375168 32,000 271 389 -64
2019-09-12 12:36:43 GMT 43.053978 -75.355293 32,000 271 388 -64
2019-09-12 12:36:35 GMT 43.054211 -75.336525 32,000 272 399 128
2019-09-12 12:36:24 GMT 43.053791 -75.312782 32,000 272 399 128
2019-09-12 12:36:15 GMT 43.055096 -75.260468 32,000 273 390 0
2019-09-12 12:36:04 GMT 43.055096 -75.260468 32,000 273 390 0
2019-09-12 12:35:50 GMT 43.053696 -75.229012 32,000 273 393 -64
2019-09-12 12:35:43 GMT 43.052814 -75.209724 32,000 273 396 0
2019-09-12 12:35:28 GMT 43.051186 -75.172379 32,000 273 396 64
2019-09-12 12:35:22 GMT 43.050812 -75.159691 32,000 273 395 128
2019-09-12 12:35:11 GMT 43.050903 -75.129417 32,000 273 393 -64
2019-09-12 12:34:58 GMT 43.049603 -75.094826 32,000 273 393 -64
2019-09-12 12:34:52 GMT 43.048809 -75.079323 32,000 273 390 64
2019-09-12 12:34:37 GMT 43.048019 -75.043030 32,000 274 395 64
2019-09-12 12:34:31 GMT 43.047180 -75.031387 32,000 273 399 0
2019-09-12 12:34:17 GMT 43.046108 -74.993004 32,000 274 397 128
2019-09-12 12:34:04 GMT 43.045177 -74.962334 32,000 274 393 256
2019-09-12 12:33:58 GMT 43.044201 -74.949776 32,000 274 392 0
2019-09-12 12:33:48 GMT 43.042805 -74.920418 32,000 274 393 0
2019-09-12 12:33:35 GMT 43.041500 -74.890724 32,000 274 392 0
2019-09-12 12:33:29 GMT 43.040802 -74.873329 32,000 274 392 0
2019-09-12 12:33:16 GMT 43.039917 -74.843315 32,000 274 390 64
2019-09-12 12:33:05 GMT 43.038616 -74.816307 32,000 274 390 0
2019-09-12 12:33:00 GMT 43.037312 -74.786812 32,000 274 389 0
2019-09-12 12:32:47 GMT 43.036983 -74.774582 32,000 274 389 0
2019-09-12 12:32:35 GMT 43.035496 -74.739731 32,000 274 389 0
2019-09-12 12:32:23 GMT 43.033119 -74.686104 32,000 274 392 0
2019-09-12 12:32:11 GMT 43.033119 -74.686104 32,000 274 392 0
2019-09-12 12:32:04 GMT 43.032703 -74.666489 32,000 274 392 0
2019-09-12 12:31:50 GMT 43.031307 -74.632027 32,000 274 392 0
2019-09-12 12:31:46 GMT 43.030792 -74.616920 32,000 274 390 0
2019-09-12 12:31:33 GMT 43.029724 -74.589912 32,000 274 390 0
2019-09-12 12:31:20 GMT 43.028419 -74.555313 32,000 274 389 0
2019-09-12 12:31:14 GMT 43.027813 -74.542892 32,000 274 388 0
2019-09-12 12:30:59 GMT 43.026184 -74.508492 32,000 274 387 0
2019-09-12 12:30:53 GMT 43.025208 -74.491295 32,000 274 386 0
2019-09-12 12:30:43 GMT 43.023392 -74.467690 32,000 274 388 0
2019-09-12 12:30:31 GMT 43.021622 -74.439308 32,000 274 392 0
2019-09-12 12:30:18 GMT 43.019806 -74.402618 32,000 273 393 0
2019-09-12 12:30:07 GMT 43.018410 -74.380386 32,000 273 392 0
2019-09-12 12:30:00 GMT 43.017620 -74.360504 32,000 273 392 0
2019-09-12 12:29:43 GMT 43.016315 -74.320808 32,000 273 391 0
2019-09-12 12:29:38 GMT 43.015896 -74.305901 32,000 273 390 0
2019-09-12 12:29:26 GMT 43.014500 -74.274574 32,000 272 393 0
2019-09-12 12:29:17 GMT 43.014221 -74.254829 32,000 272 393 64
2019-09-12 12:29:08 GMT 43.013103 -74.197083 32,000 272 386 0
2019-09-12 12:28:53 GMT 43.013103 -74.197083 32,000 272 386 0
2019-09-12 12:28:48 GMT 43.012684 -74.185310 32,000 272 387 0
2019-09-12 12:28:34 GMT 43.011616 -74.133911 32,000 272 398 0
2019-09-12 12:28:26 GMT 43.011616 -74.133911 28,600 272 398 0
2019-09-12 12:27:47 GMT 43.009102 -74.031113 32,000 272 402 0
2019-09-12 12:27:40 GMT 43.008915 -74.020973 32,000 272 402 0
2019-09-12 12:27:33 GMT 43.008404 -74.003708 32,000 272 402 0
2019-09-12 12:27:23 GMT 43.007706 -73.973495 32,000 272 402 0
2019-09-12 12:27:11 GMT 43.006821 -73.915817 32,000 272 398 0
2019-09-12 12:26:59 GMT 43.006821 -73.915817 32,000 272 398 0
2019-09-12 12:26:51 GMT 43.006588 -73.900581 32,000 272 398 0
2019-09-12 12:26:34 GMT 43.006214 -73.854874 32,000 272 395 0
2019-09-12 12:26:24 GMT 43.005703 -73.831718 32,000 272 389 0
2019-09-12 12:26:18 GMT 43.005005 -73.814194 32,000 272 389 0
2019-09-12 12:26:10 GMT 43.004494 -73.794579 32,000 271 387 64
2019-09-12 12:25:58 GMT 43.003700 -73.759987 32,000 271 387 64
2019-09-12 12:25:43 GMT 43.003422 -73.732323 32,000 272 395 64
2019-09-12 12:25:36 GMT 43.003609 -73.714600 28,600 278 400 0
2019-09-12 12:25:29 GMT 43.003281 -73.689880 32,000 278 400 0
2019-09-12 12:25:15 GMT 43.002724 -73.657379 32,000 278 400 0
2019-09-12 12:25:07 GMT 43.002117 -73.637825 32,000 278 400 0
2019-09-12 12:24:55 GMT 43.001186 -73.610298 32,000 278 400 0
2019-09-12 12:24:47 GMT 43.000580 -73.587799 32,000 278 400 0
2019-09-12 12:23:09 GMT 42.994995 -73.350090 32,000 278 399 0
2019-09-12 12:23:02 GMT 42.993412 -73.329689 32,000 278 399 0
2019-09-12 12:22:51 GMT 42.989223 -73.285217 32,000 278 399 0
2019-09-12 12:22:44 GMT 42.989223 -73.285217 32,000 278 399 0
2019-09-12 12:22:29 GMT 42.985405 -73.244865 32,000 278 394 0
2019-09-12 12:22:21 GMT 42.983078 -73.224724 32,000 278 391 0
2019-09-12 12:22:07 GMT 42.980190 -73.193275 32,000 278 391 0
2019-09-12 12:22:00 GMT 42.978889 -73.175484 32,000 278 391 0
2019-09-12 12:21:48 GMT 42.976093 -73.148674 32,000 278 391 0
2019-09-12 12:21:39 GMT 42.973396 -73.125130 32,000 278 391 0
2019-09-12 12:21:26 GMT 42.970600 -73.093216 32,000 278 391 0
2019-09-12 12:21:11 GMT 42.964783 -73.034294 32,000 278 391 0
2019-09-12 12:21:02 GMT 42.964783 -73.034294 32,000 278 391 0
2019-09-12 12:20:55 GMT 42.963200 -73.019386 32,000 278 391 0
2019-09-12 12:20:39 GMT 42.959103 -72.980217 32,000 278 390 704
2019-09-12 12:20:33 GMT 42.957287 -72.963020 32,000 278 390 704
2019-09-12 12:20:21 GMT 42.954494 -72.933395 32,000 278 390 704
2019-09-12 12:20:11 GMT 42.952213 -72.909393 32,000 278 390 704
2019-09-12 12:20:00 GMT 42.949421 -72.882774 32,000 278 390 704
2019-09-12 12:19:52 GMT 42.946815 -72.860870 32,000 278 390 704
2019-09-12 12:19:37 GMT 42.944393 -72.830002 32,000 278 390 704
2019-09-12 12:19:26 GMT 42.940903 -72.798683 31,975 278 390 704
2019-09-12 12:19:18 GMT 42.939320 -72.781609 31,850 278 390 704
2019-09-12 12:19:10 GMT 42.937691 -72.762321 31,575 278 390 704
2019-09-12 12:18:57 GMT 42.934711 -72.730606 31,600
2019-09-12 12:18:43 GMT 42.929916 -72.676918 31,450
2019-09-12 12:18:35 GMT 42.929916 -72.676918 31,300
2019-09-12 12:18:25 GMT 42.927494 -72.649971 31,125
2019-09-12 12:18:15 GMT 42.923676 -72.599876 31,075
2019-09-12 12:18:02 GMT 42.923676 -72.599876 30,975
2019-09-12 12:17:55 GMT 42.921722 -72.580788 30,900
2019-09-12 12:17:42 GMT 42.917812 -72.551491 30,825
2019-09-12 12:17:28 GMT 42.913296 -72.515587 30,725

Making use of Plane Finder data

You are free to use the raw flight data, aircraft information and images provided in this report for your own purposes provided the data is correctly attributed to Plane Finder. We ask that you please credit Plane Finder and link to planefinder.net in close proximity to the content.

Optionally one of the following logos (no smaller then 150x24px) can be used and must link to planefinder.net

Embedding the Plane Finder map

You are welcome to embed the Plane Finder playback map on your website to offer visitors a more interactive experience. We suggest using the following HTML code:

<iframe src="//planefinder.net/data/report/B61137-N192JB-7700-squawk-2019-09-12/map" width="800" height="600" seamless="seamless"></iframe>

Where our data comes from

Plane Finder has a global network of data feeds and antenna radars that receive data broadcast directly from aircraft. The primary technologies used are ADS-B and MLAT. We also show feeds from the FAA and a FLARM glider feed.

Click here to find out more about the Plane Finder network.

How we collect our data